Beloit, Kansas
Current Conditions -  °F | °C
As of 7:55 PM on Monday 22 Dec 2014 (Local Time) from KCNK Reporting Station
Broken Clouds Broken Clouds  
Wind Chill:   Ceiling: 7500
Heat Index:   Visibility: 10mi
Dew Point:   Wind: 7mph
Humidity: 76%   Direction: 310°NW
Pressure: 29.55"   Gusts: NA
Location:  39.46°N, 98.11°W
Report Text: KCNK 230155Z AUTO 31006KT 10SM BKN075 04/00 A2955 RMK AO2 SLP012 T00390000
Loading
Personal Weather Stations






























Interactive Weather Map New forecast layout! Learn more

10-Day Weather Forecast

Advertisements
Track Severe Weather on mobile